sensor_id;sensor_type;location;lat;lon;timestamp;P1;durP1;ratioP1;P2;durP2;ratioP2
72501;SDS011;60524;49.874;8.652;2022-07-29T00:02:00;3.28;;;1.30;;
72501;SDS011;60524;49.874;8.652;2022-07-29T00:04:26;5.75;;;1.65;;
72501;SDS011;60524;49.874;8.652;2022-07-29T00:06:51;4.90;;;1.77;;
72501;SDS011;60524;49.874;8.652;2022-07-29T00:09:16;4.80;;;1.50;;
72501;SDS011;60524;49.874;8.652;2022-07-29T00:11:42;8.15;;;1.90;;
72501;SDS011;60524;49.874;8.652;2022-07-29T00:14:07;3.47;;;1.27;;
72501;SDS011;60524;49.874;8.652;2022-07-29T00:16:33;4.05;;;1.40;;
72501;SDS011;60524;49.874;8.652;2022-07-29T00:18:58;3.05;;;1.50;;
72501;SDS011;60524;49.874;8.652;2022-07-29T00:21:24;4.40;;;1.40;;
72501;SDS011;60524;49.874;8.652;2022-07-29T00:23:49;5.13;;;1.50;;
72501;SDS011;60524;49.874;8.652;2022-07-29T00:26:14;3.63;;;1.40;;
72501;SDS011;60524;49.874;8.652;2022-07-29T00:28:40;4.43;;;1.42;;
72501;SDS011;60524;49.874;8.652;2022-07-29T00:31:05;3.30;;;1.20;;
72501;SDS011;60524;49.874;8.652;2022-07-29T00:33:30;5.73;;;1.80;;
72501;SDS011;60524;49.874;8.652;2022-07-29T00:35:56;6.63;;;1.70;;
72501;SDS011;60524;49.874;8.652;2022-07-29T00:38:21;5.50;;;1.30;;
72501;SDS011;60524;49.874;8.652;2022-07-29T00:40:46;10.97;;;1.60;;
72501;SDS011;60524;49.874;8.652;2022-07-29T00:43:13;4.40;;;1.30;;
72501;SDS011;60524;49.874;8.652;2022-07-29T00:45:39;7.03;;;2.00;;
72501;SDS011;60524;49.874;8.652;2022-07-29T00:48:05;4.63;;;2.05;;
72501;SDS011;60524;49.874;8.652;2022-07-29T00:50:33;6.03;;;1.92;;
72501;SDS011;60524;49.874;8.652;2022-07-29T00:52:58;5.05;;;2.00;;
72501;SDS011;60524;49.874;8.652;2022-07-29T00:55:24;8.55;;;2.25;;
72501;SDS011;60524;49.874;8.652;2022-07-29T00:57:50;8.60;;;2.53;;
72501;SDS011;60524;49.874;8.652;2022-07-29T01:00:19;4.65;;;1.70;;
72501;SDS011;60524;49.874;8.652;2022-07-29T01:02:47;3.28;;;1.27;;
72501;SDS011;60524;49.874;8.652;2022-07-29T01:05:13;5.72;;;1.40;;
72501;SDS011;60524;49.874;8.652;2022-07-29T01:07:40;4.90;;;1.42;;
72501;SDS011;60524;49.874;8.652;2022-07-29T01:10:07;4.25;;;1.38;;
72501;SDS011;60524;49.874;8.652;2022-07-29T01:12:34;2.10;;;1.08;;
72501;SDS011;60524;49.874;8.652;2022-07-29T01:15:01;4.80;;;1.30;;
72501;SDS011;60524;49.874;8.652;2022-07-29T01:20:17;2.50;;;1.25;;
72501;SDS011;60524;49.874;8.652;2022-07-29T01:22:55;6.13;;;1.42;;
72501;SDS011;60524;49.874;8.652;2022-07-29T01:25:54;3.40;;;1.38;;
72501;SDS011;60524;49.874;8.652;2022-07-29T01:28:36;4.47;;;1.50;;
72501;SDS011;60524;49.874;8.652;2022-07-29T01:31:04;6.90;;;1.83;;
72501;SDS011;60524;49.874;8.652;2022-07-29T01:33:33;6.72;;;1.40;;
72501;SDS011;60524;49.874;8.652;2022-07-29T01:39:05;4.75;;;1.50;;
72501;SDS011;60524;49.874;8.652;2022-07-29T01:41:34;3.58;;;1.35;;
72501;SDS011;60524;49.874;8.652;2022-07-29T01:44:02;5.25;;;1.42;;
72501;SDS011;60524;49.874;8.652;2022-07-29T01:46:35;4.65;;;1.50;;
72501;SDS011;60524;49.874;8.652;2022-07-29T01:49:13;2.80;;;1.58;;
72501;SDS011;60524;49.874;8.652;2022-07-29T01:51:47;3.97;;;1.65;;
72501;SDS011;60524;49.874;8.652;2022-07-29T01:54:21;6.88;;;1.83;;
72501;SDS011;60524;49.874;8.652;2022-07-29T01:56:53;3.33;;;1.13;;
72501;SDS011;60524;49.874;8.652;2022-07-29T01:59:18;4.60;;;1.63;;
72501;SDS011;60524;49.874;8.652;2022-07-29T02:01:45;6.25;;;1.75;;
72501;SDS011;60524;49.874;8.652;2022-07-29T02:04:12;4.80;;;1.60;;
72501;SDS011;60524;49.874;8.652;2022-07-29T02:06:40;2.95;;;1.40;;
72501;SDS011;60524;49.874;8.652;2022-07-29T02:09:06;5.90;;;1.52;;
72501;SDS011;60524;49.874;8.652;2022-07-29T02:11:33;7.22;;;1.50;;
72501;SDS011;60524;49.874;8.652;2022-07-29T02:13:58;4.80;;;1.42;;
72501;SDS011;60524;49.874;8.652;2022-07-29T02:16:25;6.20;;;1.65;;
72501;SDS011;60524;49.874;8.652;2022-07-29T02:18:52;3.75;;;1.23;;
72501;SDS011;60524;49.874;8.652;2022-07-29T02:21:20;6.63;;;1.73;;
72501;SDS011;60524;49.874;8.652;2022-07-29T02:23:48;5.05;;;1.45;;
72501;SDS011;60524;49.874;8.652;2022-07-29T02:26:14;5.45;;;1.45;;
72501;SDS011;60524;49.874;8.652;2022-07-29T02:28:42;4.75;;;1.80;;
72501;SDS011;60524;49.874;8.652;2022-07-29T02:31:07;6.55;;;1.90;;
72501;SDS011;60524;49.874;8.652;2022-07-29T02:33:34;4.55;;;1.60;;
72501;SDS011;60524;49.874;8.652;2022-07-29T02:36:00;7.47;;;1.95;;
72501;SDS011;60524;49.874;8.652;2022-07-29T02:38:27;4.93;;;1.90;;
72501;SDS011;60524;49.874;8.652;2022-07-29T02:41:13;5.10;;;1.90;;
72501;SDS011;60524;49.874;8.652;2022-07-29T02:43:41;4.93;;;1.65;;
72501;SDS011;60524;49.874;8.652;2022-07-29T02:46:11;3.63;;;1.80;;
72501;SDS011;60524;49.874;8.652;2022-07-29T02:48:41;3.45;;;1.20;;
72501;SDS011;60524;49.874;8.652;2022-07-29T02:51:14;4.55;;;1.80;;
72501;SDS011;60524;49.874;8.652;2022-07-29T02:53:43;6.15;;;1.77;;
72501;SDS011;60524;49.874;8.652;2022-07-29T02:56:13;8.23;;;1.80;;
72501;SDS011;60524;49.874;8.652;2022-07-29T02:58:45;7.72;;;1.92;;
72501;SDS011;60524;49.874;8.652;2022-07-29T03:01:16;5.25;;;1.80;;
72501;SDS011;60524;49.874;8.652;2022-07-29T03:03:48;3.75;;;1.70;;
72501;SDS011;60524;49.874;8.652;2022-07-29T03:06:14;5.03;;;1.77;;
72501;SDS011;60524;49.874;8.652;2022-07-29T03:08:40;4.80;;;1.50;;
72501;SDS011;60524;49.874;8.652;2022-07-29T03:11:07;8.35;;;4.03;;
72501;SDS011;60524;49.874;8.652;2022-07-29T03:13:33;8.48;;;1.63;;
72501;SDS011;60524;49.874;8.652;2022-07-29T03:16:00;4.00;;;1.77;;
72501;SDS011;60524;49.874;8.652;2022-07-29T03:18:26;5.68;;;1.95;;
72501;SDS011;60524;49.874;8.652;2022-07-29T03:20:51;2.92;;;1.70;;
72501;SDS011;60524;49.874;8.652;2022-07-29T03:23:20;4.25;;;1.95;;
72501;SDS011;60524;49.874;8.652;2022-07-29T03:25:47;7.13;;;1.88;;
72501;SDS011;60524;49.874;8.652;2022-07-29T03:28:13;5.22;;;1.70;;
72501;SDS011;60524;49.874;8.652;2022-07-29T03:30:38;6.43;;;1.83;;
72501;SDS011;60524;49.874;8.652;2022-07-29T03:33:04;4.80;;;1.83;;
72501;SDS011;60524;49.874;8.652;2022-07-29T03:35:29;3.83;;;1.70;;
72501;SDS011;60524;49.874;8.652;2022-07-29T03:37:56;3.65;;;1.58;;
72501;SDS011;60524;49.874;8.652;2022-07-29T03:41:05;7.65;;;1.60;;
72501;SDS011;60524;49.874;8.652;2022-07-29T03:43:15;3.28;;;1.88;;
72501;SDS011;60524;49.874;8.652;2022-07-29T03:45:47;6.78;;;2.10;;
72501;SDS011;60524;49.874;8.652;2022-07-29T03:48:14;4.30;;;1.80;;
72501;SDS011;60524;49.874;8.652;2022-07-29T03:50:40;3.97;;;1.65;;
72501;SDS011;60524;49.874;8.652;2022-07-29T03:53:06;4.97;;;1.83;;
72501;SDS011;60524;49.874;8.652;2022-07-29T03:55:33;4.43;;;1.67;;
72501;SDS011;60524;49.874;8.652;2022-07-29T03:58:01;5.55;;;1.90;;
72501;SDS011;60524;49.874;8.652;2022-07-29T04:00:27;6.28;;;1.60;;
72501;SDS011;60524;49.874;8.652;2022-07-29T04:02:52;4.82;;;1.88;;
72501;SDS011;60524;49.874;8.652;2022-07-29T04:05:18;7.40;;;1.80;;
72501;SDS011;60524;49.874;8.652;2022-07-29T04:07:44;6.05;;;1.50;;
72501;SDS011;60524;49.874;8.652;2022-07-29T04:10:10;4.68;;;1.60;;
72501;SDS011;60524;49.874;8.652;2022-07-29T04:12:35;4.05;;;1.50;;
72501;SDS011;60524;49.874;8.652;2022-07-29T04:15:02;4.73;;;1.97;;
72501;SDS011;60524;49.874;8.652;2022-07-29T04:17:30;8.18;;;1.70;;
72501;SDS011;60524;49.874;8.652;2022-07-29T04:19:56;7.17;;;1.83;;
72501;SDS011;60524;49.874;8.652;2022-07-29T04:22:21;5.67;;;1.60;;
72501;SDS011;60524;49.874;8.652;2022-07-29T04:24:46;6.70;;;1.83;;
72501;SDS011;60524;49.874;8.652;2022-07-29T04:27:12;5.53;;;1.77;;
72501;SDS011;60524;49.874;8.652;2022-07-29T04:29:37;5.38;;;2.05;;
72501;SDS011;60524;49.874;8.652;2022-07-29T04:32:02;4.87;;;2.00;;
72501;SDS011;60524;49.874;8.652;2022-07-29T04:34:28;4.30;;;1.83;;
72501;SDS011;60524;49.874;8.652;2022-07-29T04:36:53;6.33;;;1.67;;
72501;SDS011;60524;49.874;8.652;2022-07-29T04:39:19;5.72;;;1.60;;
72501;SDS011;60524;49.874;8.652;2022-07-29T04:41:44;12.47;;;1.87;;
72501;SDS011;60524;49.874;8.652;2022-07-29T04:44:10;3.20;;;1.50;;
72501;SDS011;60524;49.874;8.652;2022-07-29T04:46:35;6.18;;;1.77;;
72501;SDS011;60524;49.874;8.652;2022-07-29T04:49:02;4.40;;;1.80;;
72501;SDS011;60524;49.874;8.652;2022-07-29T04:51:28;4.70;;;1.90;;
72501;SDS011;60524;49.874;8.652;2022-07-29T04:53:53;6.17;;;1.73;;
72501;SDS011;60524;49.874;8.652;2022-07-29T04:56:18;3.83;;;1.50;;
72501;SDS011;60524;49.874;8.652;2022-07-29T04:58:43;5.70;;;1.60;;
72501;SDS011;60524;49.874;8.652;2022-07-29T05:01:09;6.40;;;1.93;;
72501;SDS011;60524;49.874;8.652;2022-07-29T05:03:34;11.27;;;1.87;;
72501;SDS011;60524;49.874;8.652;2022-07-29T05:05:59;9.77;;;2.10;;
72501;SDS011;60524;49.874;8.652;2022-07-29T05:08:25;3.83;;;1.90;;
72501;SDS011;60524;49.874;8.652;2022-07-29T05:10:50;4.03;;;1.63;;
72501;SDS011;60524;49.874;8.652;2022-07-29T05:13:15;13.87;;;2.23;;
72501;SDS011;60524;49.874;8.652;2022-07-29T05:15:41;8.00;;;1.70;;
72501;SDS011;60524;49.874;8.652;2022-07-29T05:18:06;5.20;;;1.70;;
72501;SDS011;60524;49.874;8.652;2022-07-29T05:20:31;11.35;;;2.10;;
72501;SDS011;60524;49.874;8.652;2022-07-29T05:22:58;6.95;;;2.08;;
72501;SDS011;60524;49.874;8.652;2022-07-29T05:25:24;11.10;;;1.90;;
72501;SDS011;60524;49.874;8.652;2022-07-29T05:27:50;6.03;;;1.90;;
72501;SDS011;60524;49.874;8.652;2022-07-29T05:30:15;8.25;;;1.80;;
72501;SDS011;60524;49.874;8.652;2022-07-29T05:32:41;9.43;;;1.95;;
72501;SDS011;60524;49.874;8.652;2022-07-29T05:35:06;5.80;;;1.83;;
72501;SDS011;60524;49.874;8.652;2022-07-29T05:37:32;5.75;;;1.65;;
72501;SDS011;60524;49.874;8.652;2022-07-29T05:39:58;4.47;;;2.17;;
72501;SDS011;60524;49.874;8.652;2022-07-29T05:42:24;4.78;;;1.80;;
72501;SDS011;60524;49.874;8.652;2022-07-29T05:44:50;9.05;;;1.95;;
72501;SDS011;60524;49.874;8.652;2022-07-29T05:47:15;4.05;;;1.83;;
72501;SDS011;60524;49.874;8.652;2022-07-29T05:49:41;9.27;;;2.50;;
72501;SDS011;60524;49.874;8.652;2022-07-29T05:52:06;8.60;;;1.87;;
72501;SDS011;60524;49.874;8.652;2022-07-29T05:54:31;8.13;;;2.03;;
72501;SDS011;60524;49.874;8.652;2022-07-29T05:56:57;4.72;;;1.70;;
72501;SDS011;60524;49.874;8.652;2022-07-29T05:59:22;5.17;;;2.07;;
72501;SDS011;60524;49.874;8.652;2022-07-29T06:01:48;6.75;;;2.10;;
72501;SDS011;60524;49.874;8.652;2022-07-29T06:04:13;5.00;;;1.80;;
72501;SDS011;60524;49.874;8.652;2022-07-29T06:06:38;6.13;;;2.47;;
72501;SDS011;60524;49.874;8.652;2022-07-29T06:09:04;6.37;;;2.53;;
72501;SDS011;60524;49.874;8.652;2022-07-29T06:11:29;8.45;;;2.55;;
72501;SDS011;60524;49.874;8.652;2022-07-29T06:13:54;4.32;;;2.20;;
72501;SDS011;60524;49.874;8.652;2022-07-29T06:16:20;7.50;;;2.00;;
72501;SDS011;60524;49.874;8.652;2022-07-29T06:18:45;7.07;;;1.97;;
72501;SDS011;60524;49.874;8.652;2022-07-29T06:21:11;7.90;;;2.20;;
72501;SDS011;60524;49.874;8.652;2022-07-29T06:23:36;4.03;;;1.83;;
72501;SDS011;60524;49.874;8.652;2022-07-29T06:26:02;5.72;;;2.58;;
72501;SDS011;60524;49.874;8.652;2022-07-29T06:28:28;4.07;;;2.00;;
72501;SDS011;60524;49.874;8.652;2022-07-29T06:30:53;5.53;;;2.00;;
72501;SDS011;60524;49.874;8.652;2022-07-29T06:33:19;4.57;;;1.73;;
72501;SDS011;60524;49.874;8.652;2022-07-29T06:35:44;4.78;;;2.35;;
72501;SDS011;60524;49.874;8.652;2022-07-29T06:38:12;4.13;;;1.95;;
72501;SDS011;60524;49.874;8.652;2022-07-29T06:40:40;6.35;;;2.20;;
72501;SDS011;60524;49.874;8.652;2022-07-29T06:43:25;7.95;;;2.53;;
72501;SDS011;60524;49.874;8.652;2022-07-29T06:45:51;7.00;;;2.30;;
72501;SDS011;60524;49.874;8.652;2022-07-29T06:48:17;6.75;;;2.28;;
72501;SDS011;60524;49.874;8.652;2022-07-29T06:50:42;9.97;;;2.50;;
72501;SDS011;60524;49.874;8.652;2022-07-29T06:53:07;5.17;;;2.30;;
72501;SDS011;60524;49.874;8.652;2022-07-29T06:55:33;4.17;;;2.00;;
72501;SDS011;60524;49.874;8.652;2022-07-29T06:57:58;5.65;;;2.30;;
72501;SDS011;60524;49.874;8.652;2022-07-29T07:00:23;9.30;;;2.65;;
72501;SDS011;60524;49.874;8.652;2022-07-29T07:02:49;6.13;;;2.47;;
72501;SDS011;60524;49.874;8.652;2022-07-29T07:05:14;8.63;;;2.30;;
72501;SDS011;60524;49.874;8.652;2022-07-29T07:07:39;4.82;;;2.65;;
72501;SDS011;60524;49.874;8.652;2022-07-29T07:10:05;5.40;;;2.10;;
72501;SDS011;60524;49.874;8.652;2022-07-29T07:12:31;5.45;;;2.08;;
72501;SDS011;60524;49.874;8.652;2022-07-29T07:14:56;6.87;;;2.33;;
72501;SDS011;60524;49.874;8.652;2022-07-29T07:17:21;7.23;;;2.10;;
72501;SDS011;60524;49.874;8.652;2022-07-29T07:19:47;8.88;;;2.25;;
72501;SDS011;60524;49.874;8.652;2022-07-29T07:22:12;5.55;;;2.53;;
72501;SDS011;60524;49.874;8.652;2022-07-29T07:24:37;9.67;;;2.43;;
72501;SDS011;60524;49.874;8.652;2022-07-29T07:27:03;8.83;;;2.43;;
72501;SDS011;60524;49.874;8.652;2022-07-29T07:29:28;7.37;;;2.37;;
72501;SDS011;60524;49.874;8.652;2022-07-29T07:31:54;4.70;;;2.27;;
72501;SDS011;60524;49.874;8.652;2022-07-29T07:34:20;8.27;;;2.42;;
72501;SDS011;60524;49.874;8.652;2022-07-29T07:36:45;3.88;;;2.20;;
72501;SDS011;60524;49.874;8.652;2022-07-29T07:39:10;4.15;;;1.95;;
72501;SDS011;60524;49.874;8.652;2022-07-29T07:41:36;4.83;;;2.53;;
72501;SDS011;60524;49.874;8.652;2022-07-29T07:44:01;11.27;;;2.03;;
72501;SDS011;60524;49.874;8.652;2022-07-29T07:46:26;6.63;;;2.05;;
72501;SDS011;60524;49.874;8.652;2022-07-29T07:48:52;4.72;;;2.20;;
72501;SDS011;60524;49.874;8.652;2022-07-29T07:51:18;4.00;;;2.30;;
72501;SDS011;60524;49.874;8.652;2022-07-29T07:53:43;8.18;;;2.75;;
72501;SDS011;60524;49.874;8.652;2022-07-29T07:56:09;5.32;;;2.58;;
72501;SDS011;60524;49.874;8.652;2022-07-29T07:58:35;6.70;;;2.50;;
72501;SDS011;60524;49.874;8.652;2022-07-29T08:01:01;9.60;;;2.42;;
72501;SDS011;60524;49.874;8.652;2022-07-29T08:03:27;4.97;;;2.30;;
72501;SDS011;60524;49.874;8.652;2022-07-29T08:05:53;3.05;;;2.05;;
72501;SDS011;60524;49.874;8.652;2022-07-29T08:08:19;7.05;;;2.67;;
72501;SDS011;60524;49.874;8.652;2022-07-29T08:10:44;4.28;;;2.40;;
72501;SDS011;60524;49.874;8.652;2022-07-29T08:13:21;7.00;;;2.40;;
72501;SDS011;60524;49.874;8.652;2022-07-29T08:15:48;4.43;;;2.20;;
72501;SDS011;60524;49.874;8.652;2022-07-29T08:18:22;6.25;;;2.10;;
72501;SDS011;60524;49.874;8.652;2022-07-29T08:20:49;4.57;;;2.42;;
72501;SDS011;60524;49.874;8.652;2022-07-29T08:23:14;4.65;;;2.47;;
72501;SDS011;60524;49.874;8.652;2022-07-29T08:25:40;7.38;;;2.20;;
72501;SDS011;60524;49.874;8.652;2022-07-29T08:28:06;3.72;;;2.50;;
72501;SDS011;60524;49.874;8.652;2022-07-29T08:30:32;5.07;;;2.45;;
72501;SDS011;60524;49.874;8.652;2022-07-29T08:32:59;5.43;;;2.47;;
72501;SDS011;60524;49.874;8.652;2022-07-29T08:35:25;3.75;;;2.15;;
72501;SDS011;60524;49.874;8.652;2022-07-29T08:37:51;4.30;;;2.20;;
72501;SDS011;60524;49.874;8.652;2022-07-29T08:40:16;5.85;;;2.08;;
72501;SDS011;60524;49.874;8.652;2022-07-29T08:42:42;4.32;;;1.95;;
72501;SDS011;60524;49.874;8.652;2022-07-29T08:45:08;5.53;;;2.45;;
72501;SDS011;60524;49.874;8.652;2022-07-29T08:47:33;4.43;;;2.40;;
72501;SDS011;60524;49.874;8.652;2022-07-29T08:50:01;5.40;;;2.28;;
72501;SDS011;60524;49.874;8.652;2022-07-29T08:52:27;6.88;;;2.78;;
72501;SDS011;60524;49.874;8.652;2022-07-29T08:54:55;7.28;;;2.70;;
72501;SDS011;60524;49.874;8.652;2022-07-29T08:57:20;5.32;;;2.85;;
72501;SDS011;60524;49.874;8.652;2022-07-29T08:59:46;4.93;;;2.30;;
72501;SDS011;60524;49.874;8.652;2022-07-29T09:02:16;5.18;;;2.45;;
72501;SDS011;60524;49.874;8.652;2022-07-29T09:04:44;5.38;;;2.40;;
72501;SDS011;60524;49.874;8.652;2022-07-29T09:07:10;7.47;;;2.40;;
72501;SDS011;60524;49.874;8.652;2022-07-29T09:09:40;3.95;;;2.30;;
72501;SDS011;60524;49.874;8.652;2022-07-29T09:12:06;4.70;;;2.30;;
72501;SDS011;60524;49.874;8.652;2022-07-29T09:14:33;4.63;;;2.25;;
72501;SDS011;60524;49.874;8.652;2022-07-29T09:16:58;4.97;;;2.30;;
72501;SDS011;60524;49.874;8.652;2022-07-29T09:19:27;5.07;;;2.50;;
72501;SDS011;60524;49.874;8.652;2022-07-29T09:21:58;4.97;;;2.10;;
72501;SDS011;60524;49.874;8.652;2022-07-29T09:27:24;7.80;;;2.55;;
72501;SDS011;60524;49.874;8.652;2022-07-29T09:29:57;7.20;;;2.17;;
72501;SDS011;60524;49.874;8.652;2022-07-29T09:32:24;3.75;;;2.35;;
72501;SDS011;60524;49.874;8.652;2022-07-29T09:37:26;7.43;;;2.60;;
72501;SDS011;60524;49.874;8.652;2022-07-29T09:39:55;4.30;;;2.58;;
72501;SDS011;60524;49.874;8.652;2022-07-29T09:42:29;7.22;;;4.00;;
72501;SDS011;60524;49.874;8.652;2022-07-29T09:44:57;6.85;;;3.65;;
72501;SDS011;60524;49.874;8.652;2022-07-29T09:47:40;5.10;;;2.40;;
72501;SDS011;60524;49.874;8.652;2022-07-29T09:50:14;3.70;;;2.58;;
72501;SDS011;60524;49.874;8.652;2022-07-29T09:52:47;6.50;;;2.25;;
72501;SDS011;60524;49.874;8.652;2022-07-29T09:55:16;6.45;;;2.58;;
72501;SDS011;60524;49.874;8.652;2022-07-29T09:57:42;4.70;;;2.60;;
72501;SDS011;60524;49.874;8.652;2022-07-29T10:00:13;6.03;;;3.30;;
72501;SDS011;60524;49.874;8.652;2022-07-29T10:02:40;4.63;;;2.38;;
72501;SDS011;60524;49.874;8.652;2022-07-29T10:05:24;4.22;;;2.40;;
72501;SDS011;60524;49.874;8.652;2022-07-29T10:07:52;4.75;;;2.53;;
72501;SDS011;60524;49.874;8.652;2022-07-29T10:10:19;5.45;;;2.80;;
72501;SDS011;60524;49.874;8.652;2022-07-29T10:15:30;5.03;;;2.90;;
72501;SDS011;60524;49.874;8.652;2022-07-29T10:17:57;5.05;;;2.47;;
72501;SDS011;60524;49.874;8.652;2022-07-29T10:20:23;4.70;;;2.70;;
72501;SDS011;60524;49.874;8.652;2022-07-29T10:22:49;4.18;;;2.45;;
72501;SDS011;60524;49.874;8.652;2022-07-29T10:25:16;9.30;;;3.10;;
72501;SDS011;60524;49.874;8.652;2022-07-29T10:27:42;3.70;;;2.42;;
72501;SDS011;60524;49.874;8.652;2022-07-29T10:30:09;6.53;;;2.50;;
72501;SDS011;60524;49.874;8.652;2022-07-29T10:38:41;7.35;;;3.38;;
72501;SDS011;60524;49.874;8.652;2022-07-29T10:43:59;6.90;;;2.83;;
72501;SDS011;60524;49.874;8.652;2022-07-29T10:46:26;17.50;;;4.20;;
72501;SDS011;60524;49.874;8.652;2022-07-29T10:49:05;6.18;;;2.65;;
72501;SDS011;60524;49.874;8.652;2022-07-29T10:54:38;9.38;;;2.63;;
72501;SDS011;60524;49.874;8.652;2022-07-29T11:07:34;5.95;;;2.80;;
72501;SDS011;60524;49.874;8.652;2022-07-29T11:15:21;5.70;;;2.17;;
72501;SDS011;60524;49.874;8.652;2022-07-29T11:20:35;6.75;;;3.22;;
72501;SDS011;60524;49.874;8.652;2022-07-29T11:23:18;9.20;;;3.13;;
72501;SDS011;60524;49.874;8.652;2022-07-29T11:39:45;4.10;;;2.30;;
72501;SDS011;60524;49.874;8.652;2022-07-29T11:44:56;6.75;;;2.53;;
72501;SDS011;60524;49.874;8.652;2022-07-29T11:47:24;10.38;;;3.03;;
72501;SDS011;60524;49.874;8.652;2022-07-29T11:49:50;8.25;;;3.50;;
72501;SDS011;60524;49.874;8.652;2022-07-29T11:52:16;9.32;;;2.70;;
72501;SDS011;60524;49.874;8.652;2022-07-29T11:54:43;6.22;;;2.83;;
72501;SDS011;60524;49.874;8.652;2022-07-29T11:57:09;8.50;;;2.67;;
72501;SDS011;60524;49.874;8.652;2022-07-29T11:59:40;6.30;;;2.97;;
72501;SDS011;60524;49.874;8.652;2022-07-29T12:02:07;4.80;;;2.58;;
72501;SDS011;60524;49.874;8.652;2022-07-29T12:04:33;6.95;;;2.70;;
72501;SDS011;60524;49.874;8.652;2022-07-29T12:06:59;11.35;;;2.63;;
72501;SDS011;60524;49.874;8.652;2022-07-29T12:09:25;5.57;;;2.50;;
72501;SDS011;60524;49.874;8.652;2022-07-29T12:11:56;4.20;;;2.10;;
72501;SDS011;60524;49.874;8.652;2022-07-29T12:16:50;4.63;;;2.83;;
72501;SDS011;60524;49.874;8.652;2022-07-29T12:19:16;4.00;;;2.50;;
72501;SDS011;60524;49.874;8.652;2022-07-29T12:21:43;6.43;;;2.87;;
72501;SDS011;60524;49.874;8.652;2022-07-29T12:24:11;4.32;;;3.00;;
72501;SDS011;60524;49.874;8.652;2022-07-29T12:26:48;4.63;;;2.60;;
72501;SDS011;60524;49.874;8.652;2022-07-29T12:29:23;5.10;;;2.53;;
72501;SDS011;60524;49.874;8.652;2022-07-29T12:31:52;4.93;;;2.80;;
72501;SDS011;60524;49.874;8.652;2022-07-29T12:34:22;10.68;;;2.92;;
72501;SDS011;60524;49.874;8.652;2022-07-29T12:36:49;7.25;;;2.80;;
72501;SDS011;60524;49.874;8.652;2022-07-29T12:39:17;6.32;;;2.85;;
72501;SDS011;60524;49.874;8.652;2022-07-29T12:41:43;4.80;;;2.55;;
72501;SDS011;60524;49.874;8.652;2022-07-29T12:44:09;4.78;;;2.30;;
72501;SDS011;60524;49.874;8.652;2022-07-29T12:46:35;7.78;;;2.80;;
72501;SDS011;60524;49.874;8.652;2022-07-29T12:49:00;4.28;;;2.28;;
72501;SDS011;60524;49.874;8.652;2022-07-29T12:54:12;5.57;;;2.80;;
72501;SDS011;60524;49.874;8.652;2022-07-29T12:56:39;9.75;;;2.40;;
72501;SDS011;60524;49.874;8.652;2022-07-29T12:59:38;4.57;;;2.42;;
72501;SDS011;60524;49.874;8.652;2022-07-29T13:01:56;3.38;;;2.10;;
72501;SDS011;60524;49.874;8.652;2022-07-29T13:04:33;3.60;;;2.40;;
72501;SDS011;60524;49.874;8.652;2022-07-29T13:07:07;5.30;;;2.58;;
72501;SDS011;60524;49.874;8.652;2022-07-29T13:09:51;4.82;;;2.33;;
72501;SDS011;60524;49.874;8.652;2022-07-29T13:12:16;5.10;;;2.30;;
72501;SDS011;60524;49.874;8.652;2022-07-29T13:14:45;4.18;;;1.90;;
72501;SDS011;60524;49.874;8.652;2022-07-29T13:17:13;3.30;;;2.13;;
72501;SDS011;60524;49.874;8.652;2022-07-29T13:19:51;4.45;;;2.30;;
72501;SDS011;60524;49.874;8.652;2022-07-29T13:22:18;4.15;;;1.92;;
72501;SDS011;60524;49.874;8.652;2022-07-29T13:24:45;6.07;;;2.30;;
72501;SDS011;60524;49.874;8.652;2022-07-29T13:27:13;9.43;;;2.40;;
72501;SDS011;60524;49.874;8.652;2022-07-29T13:29:39;7.32;;;2.55;;
72501;SDS011;60524;49.874;8.652;2022-07-29T13:32:05;3.38;;;2.00;;
72501;SDS011;60524;49.874;8.652;2022-07-29T13:34:30;6.43;;;2.00;;
72501;SDS011;60524;49.874;8.652;2022-07-29T13:36:56;4.85;;;2.33;;
72501;SDS011;60524;49.874;8.652;2022-07-29T13:39:21;3.83;;;2.10;;
72501;SDS011;60524;49.874;8.652;2022-07-29T13:41:46;6.85;;;4.00;;
72501;SDS011;60524;49.874;8.652;2022-07-29T13:44:12;7.07;;;2.40;;
72501;SDS011;60524;49.874;8.652;2022-07-29T13:46:37;4.53;;;2.30;;
72501;SDS011;60524;49.874;8.652;2022-07-29T13:49:02;3.67;;;2.13;;
72501;SDS011;60524;49.874;8.652;2022-07-29T13:51:28;7.73;;;2.70;;
72501;SDS011;60524;49.874;8.652;2022-07-29T13:53:53;3.47;;;1.90;;
72501;SDS011;60524;49.874;8.652;2022-07-29T13:56:19;5.60;;;2.17;;
72501;SDS011;60524;49.874;8.652;2022-07-29T13:58:44;4.93;;;2.40;;
72501;SDS011;60524;49.874;8.652;2022-07-29T14:01:09;5.68;;;2.22;;
72501;SDS011;60524;49.874;8.652;2022-07-29T14:03:35;4.70;;;1.90;;
72501;SDS011;60524;49.874;8.652;2022-07-29T14:06:03;4.82;;;2.28;;
72501;SDS011;60524;49.874;8.652;2022-07-29T14:08:28;5.00;;;2.17;;
72501;SDS011;60524;49.874;8.652;2022-07-29T14:10:54;6.00;;;2.17;;
72501;SDS011;60524;49.874;8.652;2022-07-29T14:13:19;4.93;;;1.95;;
72501;SDS011;60524;49.874;8.652;2022-07-29T14:15:44;4.63;;;2.40;;
72501;SDS011;60524;49.874;8.652;2022-07-29T14:18:10;9.50;;;2.50;;
72501;SDS011;60524;49.874;8.652;2022-07-29T14:20:35;7.90;;;2.10;;
72501;SDS011;60524;49.874;8.652;2022-07-29T14:23:01;5.32;;;2.15;;
72501;SDS011;60524;49.874;8.652;2022-07-29T14:25:26;4.68;;;2.50;;
72501;SDS011;60524;49.874;8.652;2022-07-29T14:27:51;5.10;;;2.00;;
72501;SDS011;60524;49.874;8.652;2022-07-29T14:30:18;6.25;;;2.22;;
72501;SDS011;60524;49.874;8.652;2022-07-29T14:32:43;4.88;;;2.30;;
72501;SDS011;60524;49.874;8.652;2022-07-29T14:35:08;5.27;;;2.00;;
72501;SDS011;60524;49.874;8.652;2022-07-29T14:37:34;5.40;;;2.00;;
72501;SDS011;60524;49.874;8.652;2022-07-29T14:40:00;5.95;;;2.13;;
72501;SDS011;60524;49.874;8.652;2022-07-29T14:42:28;7.03;;;2.50;;
72501;SDS011;60524;49.874;8.652;2022-07-29T14:44:53;4.35;;;2.20;;
72501;SDS011;60524;49.874;8.652;2022-07-29T14:47:19;6.55;;;2.38;;
72501;SDS011;60524;49.874;8.652;2022-07-29T14:49:44;6.80;;;2.35;;
72501;SDS011;60524;49.874;8.652;2022-07-29T14:52:10;10.20;;;2.27;;
72501;SDS011;60524;49.874;8.652;2022-07-29T14:54:35;11.45;;;2.22;;
72501;SDS011;60524;49.874;8.652;2022-07-29T14:57:00;7.63;;;2.28;;
72501;SDS011;60524;49.874;8.652;2022-07-29T14:59:25;5.53;;;2.47;;
72501;SDS011;60524;49.874;8.652;2022-07-29T15:01:51;4.38;;;2.35;;
72501;SDS011;60524;49.874;8.652;2022-07-29T15:04:17;6.30;;;2.45;;
72501;SDS011;60524;49.874;8.652;2022-07-29T15:06:42;7.37;;;2.57;;
72501;SDS011;60524;49.874;8.652;2022-07-29T15:09:08;5.13;;;2.60;;
72501;SDS011;60524;49.874;8.652;2022-07-29T15:11:33;4.73;;;2.20;;
72501;SDS011;60524;49.874;8.652;2022-07-29T15:13:58;5.25;;;2.13;;
72501;SDS011;60524;49.874;8.652;2022-07-29T15:16:24;3.28;;;1.90;;
72501;SDS011;60524;49.874;8.652;2022-07-29T15:18:49;5.40;;;2.72;;
72501;SDS011;60524;49.874;8.652;2022-07-29T15:21:15;6.13;;;2.33;;
72501;SDS011;60524;49.874;8.652;2022-07-29T15:23:40;5.88;;;2.38;;
72501;SDS011;60524;49.874;8.652;2022-07-29T15:26:05;7.90;;;3.37;;
72501;SDS011;60524;49.874;8.652;2022-07-29T15:28:31;5.97;;;2.30;;
72501;SDS011;60524;49.874;8.652;2022-07-29T15:33:23;5.97;;;2.27;;
72501;SDS011;60524;49.874;8.652;2022-07-29T15:35:48;6.70;;;2.38;;
72501;SDS011;60524;49.874;8.652;2022-07-29T15:38:15;8.40;;;2.70;;
72501;SDS011;60524;49.874;8.652;2022-07-29T15:40:40;5.07;;;2.20;;
72501;SDS011;60524;49.874;8.652;2022-07-29T15:43:08;10.07;;;3.28;;
72501;SDS011;60524;49.874;8.652;2022-07-29T15:45:40;5.05;;;2.20;;
72501;SDS011;60524;49.874;8.652;2022-07-29T15:48:06;8.18;;;2.63;;
72501;SDS011;60524;49.874;8.652;2022-07-29T15:50:32;12.95;;;3.17;;
72501;SDS011;60524;49.874;8.652;2022-07-29T15:52:58;8.93;;;2.30;;
72501;SDS011;60524;49.874;8.652;2022-07-29T15:55:24;6.90;;;2.30;;
72501;SDS011;60524;49.874;8.652;2022-07-29T15:57:49;7.93;;;2.37;;